createdAt,value
2023-02-19T00:01:31.155Z,10.70
2023-02-19T00:04:14.459Z,10.60
2023-02-19T00:06:41.826Z,10.70
2023-02-19T00:09:11.685Z,10.70
2023-02-19T00:11:39.008Z,10.70
2023-02-19T00:14:06.168Z,10.70
2023-02-19T00:16:38.740Z,10.70
2023-02-19T00:19:08.404Z,10.70
2023-02-19T00:21:35.564Z,10.70
2023-02-19T00:24:05.124Z,10.70
2023-02-19T00:26:33.009Z,10.70
2023-02-19T00:29:00.979Z,10.60
2023-02-19T00:31:33.189Z,10.70
2023-02-19T00:34:05.924Z,10.60
2023-02-19T00:36:36.097Z,10.60
2023-02-19T00:39:04.515Z,10.60
2023-02-19T00:41:31.227Z,10.70
2023-02-19T00:44:03.819Z,10.70
2023-02-19T00:46:33.714Z,10.70
2023-02-19T00:49:01.004Z,10.70
2023-02-19T00:51:30.482Z,10.60
2023-02-19T00:53:57.413Z,10.60
2023-02-19T00:56:24.256Z,10.60
2023-02-19T00:58:51.472Z,10.60
2023-02-19T01:01:19.469Z,10.60
2023-02-19T01:03:46.750Z,10.70
2023-02-19T01:06:15.738Z,10.60
2023-02-19T01:08:42.788Z,10.60
2023-02-19T01:11:10.477Z,10.60
2023-02-19T01:13:37.749Z,10.70
2023-02-19T01:16:06.729Z,10.60
2023-02-19T01:18:34.284Z,10.70
2023-02-19T01:21:09.277Z,10.70
2023-02-19T01:23:37.034Z,10.70
2023-02-19T01:26:09.037Z,10.70
2023-02-19T01:28:36.075Z,10.70
2023-02-19T01:31:08.671Z,10.70
2023-02-19T01:33:35.622Z,10.70
2023-02-19T01:36:07.220Z,10.60
2023-02-19T01:38:34.206Z,10.70
2023-02-19T01:41:06.516Z,10.70
2023-02-19T01:43:35.015Z,10.70
2023-02-19T01:46:02.498Z,10.70
2023-02-19T01:48:37.638Z,10.70
2023-02-19T01:51:10.487Z,10.60
2023-02-19T01:53:41.652Z,10.60
2023-02-19T01:56:09.538Z,10.60
2023-02-19T01:58:38.045Z,10.60
2023-02-19T02:01:07.509Z,10.50
2023-02-19T02:03:36.720Z,10.60
2023-02-19T02:06:23.378Z,10.60
2023-02-19T02:09:15.619Z,10.60
2023-02-19T02:11:47.436Z,10.60
2023-02-19T02:14:18.386Z,10.60
2023-02-19T02:17:00.768Z,10.50
2023-02-19T02:19:59.639Z,10.50
2023-02-19T02:22:36.632Z,10.40
2023-02-19T02:25:17.648Z,10.40
2023-02-19T02:28:21.059Z,10.40
2023-02-19T02:31:03.121Z,10.40
2023-02-19T02:33:54.816Z,10.30
2023-02-19T02:36:39.488Z,10.40
2023-02-19T02:39:13.034Z,10.40
2023-02-19T02:42:10.670Z,10.30
2023-02-19T02:44:42.722Z,10.40
2023-02-19T02:47:31.233Z,10.40
2023-02-19T02:50:05.959Z,10.30
2023-02-19T02:52:57.743Z,10.30
2023-02-19T02:55:26.093Z,10.40
2023-02-19T02:57:55.902Z,10.40
2023-02-19T03:00:26.185Z,10.40
2023-02-19T03:02:58.145Z,10.30
2023-02-19T03:05:50.909Z,10.30
2023-02-19T03:08:31.511Z,10.30
2023-02-19T03:11:29.881Z,10.20
2023-02-19T03:14:41.377Z,10.20
2023-02-19T03:17:45.628Z,10.10
2023-02-19T03:20:17.133Z,10.10
2023-02-19T03:22:45.946Z,10.20
2023-02-19T03:25:37.107Z,10.20
2023-02-19T03:28:08.825Z,10.20
2023-02-19T03:30:52.957Z,10.20
2023-02-19T03:33:26.413Z,10.20
2023-02-19T03:35:58.217Z,10.20
2023-02-19T03:38:34.332Z,10.20
2023-02-19T03:41:30.009Z,10.30
2023-02-19T03:44:12.967Z,10.40
2023-02-19T03:46:42.659Z,10.40
2023-02-19T03:49:24.028Z,10.40
2023-02-19T03:52:05.378Z,10.40
2023-02-19T03:54:41.135Z,10.50
2023-02-19T03:57:23.339Z,10.50
2023-02-19T03:59:59.570Z,10.50
2023-02-19T04:02:34.647Z,10.50
2023-02-19T04:05:17.922Z,10.50
2023-02-19T04:07:49.651Z,10.50
2023-02-19T04:10:21.514Z,10.50
2023-02-19T04:13:07.747Z,10.40
2023-02-19T04:15:36.476Z,10.40
2023-02-19T04:18:09.187Z,10.40
2023-02-19T04:20:43.966Z,10.40
2023-02-19T04:23:12.657Z,10.30
2023-02-19T04:25:43.248Z,10.40
2023-02-19T04:28:10.127Z,10.30
2023-02-19T04:30:37.015Z,10.30
2023-02-19T04:33:03.941Z,10.30
2023-02-19T04:35:30.913Z,10.40
2023-02-19T04:37:57.738Z,10.40
2023-02-19T04:40:24.533Z,10.30
2023-02-19T04:42:51.395Z,10.40
2023-02-19T04:45:18.202Z,10.40
2023-02-19T04:47:45.087Z,10.40
2023-02-19T04:50:11.777Z,10.40
2023-02-19T04:52:39.322Z,10.30
2023-02-19T04:55:07.105Z,10.30
2023-02-19T04:57:34.433Z,10.30
2023-02-19T05:00:01.420Z,10.20
2023-02-19T05:02:28.101Z,10.20
2023-02-19T05:04:54.805Z,10.10
2023-02-19T05:07:21.571Z,10.10
2023-02-19T05:09:48.245Z,10.20
2023-02-19T05:12:14.932Z,10.20
2023-02-19T05:14:41.609Z,10.20
2023-02-19T05:17:08.389Z,10.20
2023-02-19T05:19:35.121Z,10.20
2023-02-19T05:22:01.824Z,10.10
2023-02-19T05:24:29.857Z,10.10
2023-02-19T05:26:56.526Z,10.10
2023-02-19T05:29:23.400Z,10.10
2023-02-19T05:31:50.163Z,10.10
2023-02-19T05:34:16.998Z,10.10
2023-02-19T05:36:43.759Z,10.10
2023-02-19T05:39:12.296Z,10.10
2023-02-19T05:41:39.407Z,10.10
2023-02-19T05:44:06.174Z,10.10
2023-02-19T05:46:33.323Z,10.00
2023-02-19T05:49:00.126Z,10.00
2023-02-19T05:51:27.326Z,10.10
2023-02-19T05:53:55.159Z,10.00
2023-02-19T05:56:27.856Z,10.00
2023-02-19T05:58:54.996Z,10.00
2023-02-19T06:01:24.438Z,10.00
2023-02-19T06:03:51.551Z,10.00
2023-02-19T06:06:19.316Z,10.00
2023-02-19T06:08:47.708Z,10.00
2023-02-19T06:11:14.468Z,10.00
2023-02-19T06:13:41.212Z,10.00
2023-02-19T06:16:08.700Z,10.00
2023-02-19T06:18:35.679Z,10.00
2023-02-19T06:21:03.411Z,10.00
2023-02-19T06:23:30.806Z,9.90
2023-02-19T06:26:19.317Z,10.00
2023-02-19T06:28:47.558Z,10.00
2023-02-19T06:31:15.494Z,9.90
2023-02-19T06:33:42.781Z,9.90
2023-02-19T06:36:16.243Z,10.00
2023-02-19T06:38:43.305Z,10.00
2023-02-19T06:41:10.752Z,9.90
2023-02-19T06:43:37.780Z,10.00
2023-02-19T06:46:05.674Z,10.00
2023-02-19T06:48:33.192Z,10.00
2023-02-19T06:51:00.303Z,10.00
2023-02-19T06:53:27.614Z,10.10
2023-02-19T06:56:03.632Z,10.10
2023-02-19T06:58:30.935Z,10.10
2023-02-19T07:00:58.109Z,10.20
2023-02-19T07:03:26.196Z,10.20
2023-02-19T07:05:53.580Z,10.10
2023-02-19T07:08:20.615Z,10.10
2023-02-19T07:10:56.342Z,10.10
2023-02-19T07:13:24.389Z,10.20
2023-02-19T07:15:52.191Z,10.20
2023-02-19T07:18:19.284Z,10.20
2023-02-19T07:20:46.034Z,10.20
2023-02-19T07:23:12.826Z,10.20
2023-02-19T07:25:39.879Z,10.20
2023-02-19T07:28:07.104Z,10.30
2023-02-19T07:30:34.444Z,10.30
2023-02-19T07:33:01.338Z,10.40
2023-02-19T07:35:28.311Z,10.40
2023-02-19T07:37:54.980Z,10.50
2023-02-19T07:40:21.730Z,10.50
2023-02-19T07:42:48.591Z,10.50
2023-02-19T07:45:16.978Z,10.50
2023-02-19T07:47:43.656Z,10.50
2023-02-19T07:50:12.405Z,10.70
2023-02-19T07:52:40.501Z,10.70
2023-02-19T07:55:07.420Z,10.80
2023-02-19T07:57:34.098Z,10.80
2023-02-19T08:00:00.968Z,10.80
2023-02-19T08:03:00.161Z,10.90
2023-02-19T08:05:36.713Z,11.00
2023-02-19T08:08:06.764Z,11.00
2023-02-19T08:10:51.887Z,11.00
2023-02-19T08:13:27.876Z,11.10
2023-02-19T08:16:01.724Z,11.10
2023-02-19T08:18:34.422Z,11.20
2023-02-19T08:21:01.081Z,11.20
2023-02-19T08:23:28.841Z,11.20
2023-02-19T08:26:01.419Z,11.10
2023-02-19T08:28:29.368Z,11.00
2023-02-19T08:31:00.895Z,11.10
2023-02-19T08:33:28.014Z,11.00
2023-02-19T08:35:55.330Z,11.00
2023-02-19T08:38:22.506Z,11.10
2023-02-19T08:40:49.246Z,11.10
2023-02-19T08:43:17.113Z,11.10
2023-02-19T08:45:45.665Z,11.30
2023-02-19T08:48:12.832Z,11.30
2023-02-19T08:50:40.902Z,11.30
2023-02-19T08:53:07.711Z,11.30
2023-02-19T08:55:34.486Z,11.30
2023-02-19T08:58:01.241Z,11.30
2023-02-19T09:00:28.023Z,11.40
2023-02-19T09:02:54.730Z,11.50
2023-02-19T09:05:21.415Z,11.50
2023-02-19T09:07:48.385Z,11.50
2023-02-19T09:10:15.084Z,11.60
2023-02-19T09:12:42.072Z,11.60
2023-02-19T09:15:08.935Z,11.70
2023-02-19T09:17:35.755Z,11.90
2023-02-19T09:20:02.543Z,11.90
2023-02-19T09:22:29.298Z,11.90
2023-02-19T09:24:56.014Z,11.90
2023-02-19T09:27:22.705Z,11.90
2023-02-19T09:29:49.412Z,12.00
2023-02-19T09:32:18.735Z,12.10
2023-02-19T09:34:45.872Z,12.10
2023-02-19T09:37:12.592Z,12.30
2023-02-19T09:39:39.493Z,12.40
2023-02-19T09:42:12.780Z,12.60
2023-02-19T09:44:42.101Z,12.70
2023-02-19T09:47:31.284Z,12.80
2023-02-19T09:50:09.458Z,12.70
2023-02-19T09:52:49.234Z,12.70
2023-02-19T09:55:42.800Z,12.60
2023-02-19T09:58:33.358Z,12.60
2023-02-19T10:01:03.098Z,12.40
2023-02-19T10:03:39.187Z,12.30
2023-02-19T10:06:23.784Z,12.30
2023-02-19T10:08:54.073Z,12.30
2023-02-19T10:11:22.280Z,12.20
2023-02-19T10:14:01.662Z,12.10
2023-02-19T10:16:28.797Z,12.00
2023-02-19T10:18:56.526Z,11.90
2023-02-19T10:21:28.069Z,11.80
2023-02-19T10:24:02.718Z,11.70
2023-02-19T10:26:42.531Z,11.70
2023-02-19T10:29:11.094Z,11.70
2023-02-19T10:31:37.974Z,11.80
2023-02-19T10:34:06.582Z,11.90
2023-02-19T10:36:39.960Z,12.00
2023-02-19T10:39:42.263Z,12.00
2023-02-19T10:42:23.403Z,12.10
2023-02-19T10:44:58.839Z,12.20
2023-02-19T10:47:27.952Z,12.40
2023-02-19T10:49:58.719Z,12.60
2023-02-19T10:52:35.355Z,12.60
2023-02-19T10:55:25.781Z,12.50
2023-02-19T10:57:52.633Z,12.30
2023-02-19T11:00:27.865Z,12.10
2023-02-19T11:03:18.374Z,11.90
2023-02-19T11:05:56.049Z,11.90
2023-02-19T11:08:24.549Z,12.00
2023-02-19T11:10:51.700Z,12.00
2023-02-19T11:13:37.874Z,11.90
2023-02-19T11:16:05.558Z,12.00
2023-02-19T11:18:33.338Z,12.10
2023-02-19T11:21:01.454Z,12.20
2023-02-19T11:23:36.051Z,12.40
2023-02-19T11:26:15.931Z,12.60
2023-02-19T11:28:44.043Z,12.80
2023-02-19T11:31:22.715Z,13.20
2023-02-19T11:34:04.176Z,13.80
2023-02-19T11:36:32.605Z,14.90
2023-02-19T11:39:20.031Z,15.80
2023-02-19T11:42:05.537Z,16.20
2023-02-19T11:44:55.196Z,16.80
2023-02-19T11:47:58.945Z,18.50
2023-02-19T11:50:50.112Z,17.60
2023-02-19T11:53:22.502Z,17.10
2023-02-19T11:56:11.864Z,17.00
2023-02-19T11:58:48.393Z,16.40
2023-02-19T12:01:30.238Z,15.10
2023-02-19T12:04:36.880Z,14.90
2023-02-19T12:07:42.196Z,14.80
2023-02-19T12:10:36.632Z,14.70
2023-02-19T12:13:26.643Z,14.30
2023-02-19T12:16:18.042Z,13.60
2023-02-19T12:19:11.834Z,13.40
2023-02-19T12:22:00.380Z,13.30
2023-02-19T12:24:27.118Z,13.30
2023-02-19T12:27:12.680Z,13.50
2023-02-19T12:29:57.003Z,13.60
2023-02-19T12:32:42.499Z,14.90
2023-02-19T12:35:24.816Z,17.50
2023-02-19T12:38:04.645Z,19.80
2023-02-19T12:41:11.758Z,21.80
2023-02-19T12:43:41.812Z,23.90
2023-02-19T12:46:31.199Z,24.30
2023-02-19T12:49:06.894Z,22.60
2023-02-19T12:51:43.125Z,21.10
2023-02-19T12:54:24.889Z,18.90
2023-02-19T12:57:15.634Z,17.70
2023-02-19T12:59:50.594Z,16.80
2023-02-19T13:02:45.387Z,16.20
2023-02-19T13:05:18.103Z,15.80
2023-02-19T13:07:53.944Z,15.60
2023-02-19T13:10:31.012Z,15.60
2023-02-19T13:13:04.569Z,15.10
2023-02-19T13:15:45.321Z,15.10
2023-02-19T13:18:28.924Z,14.90
2023-02-19T13:20:56.657Z,14.70
2023-02-19T13:24:09.128Z,14.40
2023-02-19T13:26:50.923Z,14.40
2023-02-19T13:29:39.031Z,14.40
2023-02-19T13:32:24.600Z,14.30
2023-02-19T13:35:18.974Z,14.10
2023-02-19T13:37:46.613Z,14.00
2023-02-19T13:40:22.662Z,13.90
2023-02-19T13:42:58.529Z,13.90
2023-02-19T13:45:46.375Z,13.80
2023-02-19T13:48:25.683Z,13.60
2023-02-19T13:51:17.377Z,13.50
2023-02-19T13:53:48.149Z,13.50
2023-02-19T13:56:30.295Z,13.40
2023-02-19T13:59:17.876Z,13.50
2023-02-19T14:01:53.610Z,13.50
2023-02-19T14:04:26.093Z,13.30
2023-02-19T14:07:05.048Z,13.20
2023-02-19T14:09:34.483Z,13.30
2023-02-19T14:12:13.728Z,13.30
2023-02-19T14:14:55.291Z,13.10
2023-02-19T14:17:35.427Z,13.00
2023-02-19T14:20:17.608Z,12.90
2023-02-19T14:22:52.063Z,12.90
2023-02-19T14:25:28.308Z,12.90
2023-02-19T14:28:01.333Z,12.80
2023-02-19T14:30:29.225Z,12.70
2023-02-19T14:33:09.646Z,12.50
2023-02-19T14:35:44.306Z,12.40
2023-02-19T14:38:23.237Z,12.20
2023-02-19T14:40:50.634Z,12.00
2023-02-19T14:43:20.575Z,11.90
2023-02-19T14:45:57.043Z,11.70
2023-02-19T14:48:46.164Z,11.70
2023-02-19T14:51:33.497Z,11.80
2023-02-19T14:54:09.246Z,12.00
2023-02-19T14:56:36.852Z,12.30
2023-02-19T14:59:15.621Z,12.60
2023-02-19T15:01:42.432Z,12.60
2023-02-19T15:04:24.485Z,12.60
2023-02-19T15:06:53.146Z,12.50
2023-02-19T15:09:21.823Z,12.40
2023-02-19T15:11:49.025Z,12.40
2023-02-19T15:14:24.294Z,12.30
2023-02-19T15:16:57.783Z,12.20
2023-02-19T15:19:24.668Z,12.10
2023-02-19T15:21:51.783Z,12.00
2023-02-19T15:24:19.655Z,12.00
2023-02-19T15:26:54.048Z,12.00
2023-02-19T15:29:24.241Z,11.90
2023-02-19T15:31:54.336Z,11.90
2023-02-19T15:34:26.834Z,11.80
2023-02-19T15:37:14.236Z,11.80
2023-02-19T15:39:45.045Z,11.70
2023-02-19T15:42:21.033Z,11.60
2023-02-19T15:44:51.627Z,11.60
2023-02-19T15:47:18.334Z,11.50
2023-02-19T15:49:58.646Z,11.50
2023-02-19T15:52:41.586Z,11.40
2023-02-19T15:55:23.567Z,11.40
2023-02-19T15:58:23.408Z,11.30
2023-02-19T16:01:04.626Z,11.20
2023-02-19T16:03:32.729Z,11.20
2023-02-19T16:06:11.259Z,11.20
2023-02-19T16:08:39.820Z,11.20
2023-02-19T16:11:27.677Z,11.20
2023-02-19T16:14:34.040Z,11.20
2023-02-19T16:17:09.828Z,11.20
2023-02-19T16:19:50.494Z,11.20
2023-02-19T16:22:20.283Z,11.20
2023-02-19T16:24:56.671Z,11.10
2023-02-19T16:27:37.329Z,11.10
2023-02-19T16:30:08.337Z,11.10
2023-02-19T16:32:35.846Z,11.00
2023-02-19T16:35:03.257Z,10.90
2023-02-19T16:37:41.052Z,10.90
2023-02-19T16:40:07.955Z,10.90
2023-02-19T16:42:35.509Z,10.80
2023-02-19T16:45:02.589Z,10.80
2023-02-19T16:47:40.497Z,10.70
2023-02-19T16:50:14.987Z,10.70
2023-02-19T16:52:57.493Z,10.70
2023-02-19T16:55:28.205Z,10.60
2023-02-19T16:57:56.771Z,10.60
2023-02-19T17:00:31.535Z,10.50
2023-02-19T17:03:25.505Z,10.50
2023-02-19T17:05:56.599Z,10.50
2023-02-19T17:08:37.390Z,10.50
2023-02-19T17:11:12.602Z,10.50
2023-02-19T17:13:40.771Z,10.40
2023-02-19T17:16:08.538Z,10.40
2023-02-19T17:18:35.614Z,10.40
2023-02-19T17:21:16.399Z,10.40
2023-02-19T17:23:43.426Z,10.40
2023-02-19T17:26:21.182Z,10.40
2023-02-19T17:28:49.129Z,10.40
2023-02-19T17:31:17.173Z,10.30
2023-02-19T17:33:46.015Z,10.30
2023-02-19T17:36:30.220Z,10.30
2023-02-19T17:38:58.820Z,10.20
2023-02-19T17:41:26.508Z,10.20
2023-02-19T17:43:57.320Z,10.20
2023-02-19T17:46:27.453Z,10.10
2023-02-19T17:48:57.423Z,10.10
2023-02-19T17:51:28.321Z,10.10
2023-02-19T17:54:01.415Z,10.10
2023-02-19T17:56:33.335Z,10.00
2023-02-19T17:59:00.751Z,10.00
2023-02-19T18:01:30.674Z,10.00
2023-02-19T18:03:58.434Z,10.00
2023-02-19T18:06:27.458Z,10.00
2023-02-19T18:08:54.394Z,10.00
2023-02-19T18:11:22.985Z,10.00
2023-02-19T18:13:51.513Z,10.00
2023-02-19T18:16:19.861Z,10.00
2023-02-19T18:18:46.866Z,10.00
2023-02-19T18:21:16.661Z,10.00
2023-02-19T18:23:43.798Z,10.00
2023-02-19T18:26:11.201Z,10.00
2023-02-19T18:28:38.826Z,10.00
2023-02-19T18:31:05.970Z,10.00
2023-02-19T18:33:35.303Z,10.10
2023-02-19T18:36:04.227Z,10.10
2023-02-19T18:38:31.047Z,10.10
2023-02-19T18:40:58.861Z,10.00
2023-02-19T18:43:26.459Z,10.10
2023-02-19T18:45:53.654Z,10.10
2023-02-19T18:48:20.458Z,10.00
2023-02-19T18:50:47.506Z,9.90
2023-02-19T18:53:14.157Z,9.90
2023-02-19T18:55:41.168Z,9.90
2023-02-19T18:58:07.967Z,9.90
2023-02-19T19:00:34.758Z,9.80
2023-02-19T19:03:01.698Z,9.80
2023-02-19T19:05:28.503Z,9.80
2023-02-19T19:07:59.056Z,9.80
2023-02-19T19:10:26.418Z,9.70
2023-02-19T19:12:54.667Z,9.70
2023-02-19T19:15:22.808Z,9.70
2023-02-19T19:17:50.588Z,9.70
2023-02-19T19:20:19.620Z,9.70
2023-02-19T19:22:49.395Z,9.70
2023-02-19T19:25:16.364Z,9.70
2023-02-19T19:27:43.165Z,9.70
2023-02-19T19:30:10.245Z,9.80
2023-02-19T19:32:37.853Z,9.80
2023-02-19T19:35:04.794Z,9.80
2023-02-19T19:37:31.575Z,9.80
2023-02-19T19:39:58.345Z,9.80
2023-02-19T19:42:25.486Z,9.80
2023-02-19T19:44:52.856Z,9.80
2023-02-19T19:47:19.665Z,9.80
2023-02-19T19:49:47.362Z,9.80
2023-02-19T19:52:15.126Z,9.80
2023-02-19T19:54:43.068Z,9.80
2023-02-19T19:57:10.341Z,9.80
2023-02-19T19:59:39.186Z,9.90
2023-02-19T20:02:08.091Z,9.90
2023-02-19T20:04:35.074Z,9.80
2023-02-19T20:07:02.101Z,9.80
2023-02-19T20:09:29.008Z,9.80
2023-02-19T20:11:56.635Z,9.90
2023-02-19T20:14:25.207Z,9.90
2023-02-19T20:16:52.653Z,9.90
2023-02-19T20:19:20.327Z,9.80
2023-02-19T20:21:49.290Z,9.80
2023-02-19T20:24:23.912Z,9.80
2023-02-19T20:26:53.058Z,9.80
2023-02-19T20:29:19.751Z,9.80
2023-02-19T20:31:50.878Z,9.80
2023-02-19T20:34:18.514Z,9.70
2023-02-19T20:36:47.206Z,9.70
2023-02-19T20:39:19.269Z,9.70
2023-02-19T20:41:51.188Z,9.70
2023-02-19T20:44:19.207Z,9.70
2023-02-19T20:46:48.061Z,9.70
2023-02-19T20:49:16.426Z,9.70
2023-02-19T20:51:48.252Z,9.70
2023-02-19T20:54:17.275Z,9.70
2023-02-19T20:56:45.447Z,9.70
2023-02-19T20:59:13.488Z,9.70
2023-02-19T21:01:40.492Z,9.70
2023-02-19T21:04:07.470Z,9.70
2023-02-19T21:06:34.252Z,9.70
2023-02-19T21:09:01.053Z,9.70
2023-02-19T21:11:27.902Z,9.70
2023-02-19T21:13:58.953Z,9.70
2023-02-19T21:16:27.848Z,9.70
2023-02-19T21:18:54.603Z,9.60
2023-02-19T21:21:25.190Z,9.60
2023-02-19T21:23:56.471Z,9.60
2023-02-19T21:26:24.059Z,9.60
2023-02-19T21:28:54.211Z,9.60
2023-02-19T21:31:22.836Z,9.60
2023-02-19T21:33:51.261Z,9.60
2023-02-19T21:36:18.735Z,9.60
2023-02-19T21:38:45.877Z,9.60
2023-02-19T21:41:12.616Z,9.60
2023-02-19T21:43:39.316Z,9.60
2023-02-19T21:46:06.131Z,9.60
2023-02-19T21:48:32.895Z,9.60
2023-02-19T21:50:59.683Z,9.50
2023-02-19T21:53:26.384Z,9.50
2023-02-19T21:55:58.571Z,9.50
2023-02-19T21:58:37.405Z,9.50
2023-02-19T22:01:04.244Z,9.50
2023-02-19T22:03:31.292Z,9.50
2023-02-19T22:06:01.141Z,9.40
2023-02-19T22:08:27.882Z,9.40
2023-02-19T22:10:54.657Z,9.40
2023-02-19T22:13:21.519Z,9.40
2023-02-19T22:15:48.285Z,9.40
2023-02-19T22:18:14.941Z,9.40
2023-02-19T22:20:41.649Z,9.40
2023-02-19T22:23:08.397Z,9.40
2023-02-19T22:25:35.123Z,9.30
2023-02-19T22:28:04.478Z,9.30
2023-02-19T22:30:31.341Z,9.30
2023-02-19T22:32:58.039Z,9.20
2023-02-19T22:35:25.412Z,9.20
2023-02-19T22:37:52.096Z,9.20
2023-02-19T22:40:19.024Z,9.30
2023-02-19T22:42:45.725Z,9.20
2023-02-19T22:45:13.234Z,9.10
2023-02-19T22:47:40.274Z,9.10
2023-02-19T22:50:07.272Z,9.10
2023-02-19T22:52:33.990Z,9.00
2023-02-19T22:55:00.698Z,9.00
2023-02-19T22:57:28.607Z,8.90
2023-02-19T22:59:55.434Z,8.90
2023-02-19T23:02:22.135Z,8.80
2023-02-19T23:04:48.873Z,8.70
2023-02-19T23:07:15.554Z,8.70
2023-02-19T23:09:42.278Z,8.70
2023-02-19T23:12:12.570Z,8.70
2023-02-19T23:14:39.442Z,8.60
2023-02-19T23:17:06.631Z,8.60
2023-02-19T23:19:33.646Z,8.60
2023-02-19T23:22:00.655Z,8.50
2023-02-19T23:24:27.388Z,8.50
2023-02-19T23:26:54.549Z,8.50
2023-02-19T23:29:25.300Z,8.50
2023-02-19T23:31:54.422Z,8.30
2023-02-19T23:34:21.790Z,8.30
2023-02-19T23:36:50.248Z,8.20
2023-02-19T23:39:19.904Z,8.10
2023-02-19T23:41:52.067Z,8.10
2023-02-19T23:44:19.358Z,8.00
2023-02-19T23:46:46.262Z,7.90
2023-02-19T23:49:13.313Z,7.80
2023-02-19T23:51:39.963Z,7.80
2023-02-19T23:54:07.345Z,7.80
2023-02-19T23:56:34.568Z,7.70
2023-02-19T23:59:01.366Z,7.70
